createdAt,value
2019-02-06T00:01:02.149Z,47.27
2019-02-06T00:03:30.787Z,44.13
2019-02-06T00:05:59.400Z,45.17
2019-02-06T00:08:28.936Z,44.63
2019-02-06T00:10:57.489Z,41.20
2019-02-06T00:13:26.126Z,43.53
2019-02-06T00:15:54.948Z,44.07
2019-02-06T00:18:23.591Z,38.73
2019-02-06T00:20:52.484Z,40.13
2019-02-06T00:23:21.044Z,43.20
2019-02-06T00:25:49.587Z,39.43
2019-02-06T00:28:18.211Z,39.73
2019-02-06T00:30:47.217Z,40.97
2019-02-06T00:33:16.010Z,43.23
2019-02-06T00:35:44.640Z,39.73
2019-02-06T00:38:13.372Z,39.47
2019-02-06T00:40:41.916Z,36.80
2019-02-06T00:43:10.490Z,41.40
2019-02-06T00:45:39.051Z,39.33
2019-02-06T00:48:07.694Z,39.37
2019-02-06T00:50:36.308Z,43.23
2019-02-06T00:53:04.967Z,42.53
2019-02-06T00:55:33.589Z,43.50
2019-02-06T00:58:02.166Z,43.80
2019-02-06T01:00:30.829Z,45.07
2019-02-06T01:02:59.902Z,38.20
2019-02-06T01:05:38.046Z,38.07
2019-02-06T01:07:58.925Z,37.00
2019-02-06T01:10:27.584Z,41.83
2019-02-06T01:12:56.148Z,41.63
2019-02-06T01:15:24.854Z,44.77
2019-02-06T01:17:53.429Z,46.50
2019-02-06T01:20:21.969Z,48.70
2019-02-06T01:22:50.562Z,44.97
2019-02-06T01:25:19.193Z,46.23
2019-02-06T01:27:47.824Z,45.60
2019-02-06T01:30:20.521Z,43.07
2019-02-06T01:32:49.193Z,44.77
2019-02-06T01:35:18.518Z,44.00
2019-02-06T01:37:47.161Z,48.47
2019-02-06T01:40:20.736Z,37.33
2019-02-06T01:42:49.327Z,41.60
2019-02-06T01:45:20.145Z,46.33
2019-02-06T01:47:48.716Z,49.47
2019-02-06T01:50:19.214Z,47.13
2019-02-06T01:52:47.833Z,47.10
2019-02-06T01:55:16.532Z,51.57
2019-02-06T01:57:45.352Z,52.47
2019-02-06T02:00:19.772Z,51.57
2019-02-06T02:02:48.488Z,47.07
2019-02-06T02:05:20.211Z,53.67
2019-02-06T02:07:50.164Z,48.93
2019-02-06T02:10:20.274Z,47.57
2019-02-06T02:12:49.583Z,49.83
2019-02-06T02:15:19.232Z,43.40
2019-02-06T02:17:47.944Z,44.43
2019-02-06T02:20:18.769Z,43.83
2019-02-06T02:22:47.561Z,42.80
2019-02-06T02:25:16.188Z,38.63
2019-02-06T02:27:44.872Z,41.43
2019-02-06T02:30:16.284Z,40.43
2019-02-06T02:32:45.017Z,37.50
2019-02-06T02:35:13.576Z,38.00
2019-02-06T02:37:42.216Z,39.03
2019-02-06T02:40:12.248Z,39.97
2019-02-06T02:42:40.865Z,39.20
2019-02-06T02:45:15.874Z,41.43
2019-02-06T02:47:45.201Z,41.27
2019-02-06T02:50:14.196Z,43.30
2019-02-06T02:52:42.925Z,42.33
2019-02-06T02:55:13.009Z,41.13
2019-02-06T02:57:41.690Z,37.60
2019-02-06T03:00:16.758Z,40.73
2019-02-06T03:03:03.598Z,42.43
2019-02-06T03:05:33.780Z,39.77
2019-02-06T03:08:02.333Z,42.43
2019-02-06T03:10:30.960Z,47.43
2019-02-06T03:12:59.605Z,37.93
2019-02-06T03:15:28.098Z,45.73
2019-02-06T03:17:56.576Z,40.97
2019-02-06T03:20:25.062Z,42.30
2019-02-06T03:22:53.588Z,41.77
2019-02-06T03:25:22.062Z,41.10
2019-02-06T03:27:50.648Z,41.13
2019-02-06T03:30:20.048Z,42.40
2019-02-06T03:32:48.607Z,41.30
2019-02-06T03:35:17.356Z,40.07
2019-02-06T03:37:45.943Z,44.67
2019-02-06T03:40:18.692Z,42.87
2019-02-06T03:42:47.282Z,40.80
2019-02-06T03:45:16.505Z,42.73
2019-02-06T03:47:45.048Z,41.57
2019-02-06T03:50:20.422Z,43.73
2019-02-06T03:52:48.986Z,42.33
2019-02-06T03:55:17.738Z,38.67
2019-02-06T03:57:46.277Z,45.23
2019-02-06T04:00:17.476Z,42.97
2019-02-06T04:02:45.976Z,45.53
2019-02-06T04:05:14.792Z,49.87
2019-02-06T04:07:43.333Z,46.60
2019-02-06T04:10:14.998Z,43.93
2019-02-06T04:12:43.553Z,47.70
2019-02-06T04:15:12.958Z,44.63
2019-02-06T04:17:41.528Z,42.40
2019-02-06T04:20:14.616Z,40.10
2019-02-06T04:22:43.147Z,41.60
2019-02-06T04:25:14.448Z,47.30
2019-02-06T04:27:42.952Z,39.67
2019-02-06T04:30:17.727Z,41.73
2019-02-06T04:32:46.394Z,39.03
2019-02-06T04:35:15.889Z,41.20
2019-02-06T04:37:44.533Z,36.23
2019-02-06T04:40:18.751Z,37.23
2019-02-06T04:42:47.980Z,37.23
2019-02-06T04:45:18.397Z,42.97
2019-02-06T04:47:47.495Z,39.27
2019-02-06T04:50:17.607Z,40.90
2019-02-06T04:52:46.255Z,33.83
2019-02-06T04:55:16.773Z,36.87
2019-02-06T04:57:46.114Z,38.20
2019-02-06T05:00:20.553Z,39.63
2019-02-06T05:02:49.357Z,38.47
2019-02-06T05:05:17.996Z,39.07
2019-02-06T05:07:46.501Z,34.93
2019-02-06T05:10:15.682Z,35.00
2019-02-06T05:12:44.817Z,37.17
2019-02-06T05:15:15.513Z,33.90
2019-02-06T05:17:44.057Z,34.70
2019-02-06T05:20:18.810Z,35.53
2019-02-06T05:22:47.391Z,35.63
2019-02-06T05:25:15.915Z,34.57
2019-02-06T05:27:45.072Z,34.20
2019-02-06T05:30:13.713Z,37.23
2019-02-06T05:32:43.009Z,39.40
2019-02-06T05:35:12.158Z,44.20
2019-02-06T05:37:40.829Z,40.83
2019-02-06T05:40:11.847Z,36.30
2019-02-06T05:42:40.476Z,39.03
2019-02-06T05:45:11.452Z,40.80
2019-02-06T05:47:40.009Z,39.90
2019-02-06T05:50:11.939Z,41.77
2019-02-06T05:52:40.497Z,38.93
2019-02-06T05:55:09.220Z,42.43
2019-02-06T05:57:37.716Z,45.30
2019-02-06T06:00:15.660Z,41.60
2019-02-06T06:02:44.290Z,37.73
2019-02-06T06:05:12.993Z,42.37
2019-02-06T06:07:45.097Z,41.33
2019-02-06T06:10:14.835Z,50.17
2019-02-06T06:12:43.786Z,41.77
2019-02-06T06:15:31.532Z,47.77
2019-02-06T06:18:00.162Z,46.13
2019-02-06T06:20:28.729Z,45.97
2019-02-06T06:22:57.320Z,42.80
2019-02-06T06:25:26.378Z,46.83
2019-02-06T06:27:54.962Z,45.00
2019-02-06T06:30:23.651Z,45.87
2019-02-06T06:32:52.366Z,42.43
2019-02-06T06:35:21.079Z,42.30
2019-02-06T06:37:59.695Z,44.33
2019-02-06T06:40:23.653Z,40.83
2019-02-06T06:42:52.265Z,39.87
2019-02-06T06:45:23.797Z,38.30
2019-02-06T06:47:52.742Z,46.30
2019-02-06T06:50:23.545Z,43.93
2019-02-06T06:52:52.112Z,43.10
2019-02-06T06:55:20.657Z,48.60
2019-02-06T06:57:49.248Z,40.20
2019-02-06T07:00:20.176Z,46.97
2019-02-06T07:02:48.680Z,41.17
2019-02-06T07:05:17.259Z,43.83
2019-02-06T07:07:45.880Z,44.23
2019-02-06T07:10:18.378Z,42.90
2019-02-06T07:12:46.947Z,37.67
2019-02-06T07:15:18.466Z,45.80
2019-02-06T07:17:47.113Z,41.50
2019-02-06T07:20:19.821Z,37.47
2019-02-06T07:22:48.438Z,42.70
2019-02-06T07:25:18.999Z,35.53
2019-02-06T07:27:47.569Z,39.73
2019-02-06T07:30:22.161Z,40.13
2019-02-06T07:32:50.716Z,40.93
2019-02-06T07:35:19.728Z,35.40
2019-02-06T07:37:48.244Z,36.03
2019-02-06T07:40:17.914Z,38.90
2019-02-06T07:42:46.494Z,41.73
2019-02-06T07:45:17.378Z,34.43
2019-02-06T07:47:46.028Z,42.70
2019-02-06T07:50:29.183Z,39.00
2019-02-06T07:52:58.135Z,38.97
2019-02-06T07:55:26.672Z,38.33
2019-02-06T07:57:55.180Z,37.67
2019-02-06T08:00:24.197Z,41.03
2019-02-06T08:02:54.368Z,41.13
2019-02-06T08:05:23.237Z,44.67
2019-02-06T08:07:51.885Z,43.60
2019-02-06T08:10:29.070Z,54.10
2019-02-06T08:12:58.080Z,43.07
2019-02-06T08:15:26.578Z,43.37
2019-02-06T08:17:55.108Z,35.93
2019-02-06T08:20:24.914Z,35.03
2019-02-06T08:22:54.328Z,39.27
2019-02-06T08:25:24.325Z,40.40
2019-02-06T08:27:53.472Z,38.63
2019-02-06T08:30:27.120Z,35.73
2019-02-06T08:32:55.656Z,38.83
2019-02-06T08:35:24.292Z,39.27
2019-02-06T08:37:53.391Z,39.07
2019-02-06T08:40:24.998Z,40.53
2019-02-06T08:42:53.717Z,35.43
2019-02-06T08:45:22.336Z,41.80
2019-02-06T08:47:50.812Z,41.07
2019-02-06T08:50:21.292Z,39.67
2019-02-06T08:52:50.328Z,39.83
2019-02-06T08:55:27.281Z,38.23
2019-02-06T08:57:56.115Z,40.27
2019-02-06T09:00:33.252Z,40.67
2019-02-06T09:03:02.560Z,43.30
2019-02-06T09:05:31.837Z,46.30
2019-02-06T09:08:00.390Z,43.00
2019-02-06T09:10:30.440Z,40.83
2019-02-06T09:13:00.061Z,40.93
2019-02-06T09:15:28.709Z,43.97
2019-02-06T09:17:57.744Z,39.67
2019-02-06T09:20:28.227Z,35.80
2019-02-06T09:22:57.588Z,35.50
2019-02-06T09:25:28.956Z,31.53
2019-02-06T09:27:57.888Z,32.57
2019-02-06T09:30:34.661Z,32.30
2019-02-06T09:33:04.376Z,35.43
2019-02-06T09:35:32.877Z,36.53
2019-02-06T09:38:01.434Z,32.83
2019-02-06T09:40:31.555Z,35.07
2019-02-06T09:43:00.224Z,39.73
2019-02-06T09:45:29.610Z,34.73
2019-02-06T09:47:59.374Z,31.40
2019-02-06T09:50:33.372Z,35.60
2019-02-06T09:53:01.949Z,38.20
2019-02-06T09:55:31.521Z,32.43
2019-02-06T09:58:00.202Z,34.97
2019-02-06T10:00:31.527Z,35.70
2019-02-06T10:03:00.544Z,30.67
2019-02-06T10:05:29.671Z,30.37
2019-02-06T10:07:58.221Z,31.07
2019-02-06T10:10:27.873Z,34.00
2019-02-06T10:12:56.437Z,32.27
2019-02-06T10:15:27.620Z,36.47
2019-02-06T10:17:57.467Z,29.47
2019-02-06T10:20:38.101Z,32.23
2019-02-06T10:23:07.423Z,31.93
2019-02-06T10:25:37.615Z,30.90
2019-02-06T10:28:06.400Z,35.20
2019-02-06T10:30:37.716Z,46.13
2019-02-06T10:33:06.729Z,31.30
2019-02-06T10:35:35.344Z,33.80
2019-02-06T10:38:04.196Z,34.87
2019-02-06T10:40:32.668Z,33.83
2019-02-06T10:43:01.213Z,36.47
2019-02-06T10:45:29.700Z,43.47
2019-02-06T10:47:58.628Z,35.03
2019-02-06T10:50:33.190Z,35.97
2019-02-06T10:53:01.820Z,40.07
2019-02-06T10:55:30.634Z,37.40
2019-02-06T10:57:59.452Z,37.93
2019-02-06T11:00:30.925Z,38.20
2019-02-06T11:02:59.572Z,33.17
2019-02-06T11:05:28.133Z,33.37
2019-02-06T11:07:56.701Z,36.40
2019-02-06T11:10:27.388Z,35.90
2019-02-06T11:12:56.403Z,34.93
2019-02-06T11:15:25.794Z,36.60
2019-02-06T11:17:54.812Z,37.10
2019-02-06T11:20:28.841Z,31.90
2019-02-06T11:22:57.523Z,34.20
2019-02-06T11:25:26.111Z,28.07
2019-02-06T11:27:54.746Z,32.77
2019-02-06T11:30:25.937Z,28.97
2019-02-06T11:32:54.600Z,32.23
2019-02-06T11:35:23.188Z,31.23
2019-02-06T11:37:51.791Z,26.63
2019-02-06T11:40:24.930Z,33.43
2019-02-06T11:42:54.183Z,47.20
2019-02-06T11:45:29.034Z,29.40
2019-02-06T11:47:57.689Z,42.13
2019-02-06T11:50:27.958Z,40.20
2019-02-06T11:52:56.432Z,29.80
2019-02-06T11:55:27.491Z,34.20
2019-02-06T11:57:55.972Z,33.40
2019-02-06T12:00:29.412Z,40.50
2019-02-06T12:02:57.896Z,34.43
2019-02-06T12:05:26.389Z,37.33
2019-02-06T12:07:54.952Z,29.33
2019-02-06T12:10:23.701Z,38.43
2019-02-06T12:12:52.434Z,32.43
2019-02-06T12:15:21.859Z,33.83
2019-02-06T12:17:50.428Z,35.53
2019-02-06T12:20:24.879Z,36.53
2019-02-06T12:22:53.560Z,39.53
2019-02-06T12:25:22.180Z,37.83
2019-02-06T12:27:52.400Z,39.83
2019-02-06T12:30:27.267Z,39.67
2019-02-06T12:32:55.781Z,39.07
2019-02-06T12:35:24.332Z,36.67
2019-02-06T12:37:53.176Z,38.53
2019-02-06T12:40:22.210Z,39.57
2019-02-06T12:42:51.144Z,34.47
2019-02-06T12:45:21.434Z,36.80
2019-02-06T12:47:50.741Z,31.77
2019-02-06T12:50:21.484Z,37.90
2019-02-06T12:52:50.035Z,41.37
2019-02-06T12:55:24.161Z,35.20
2019-02-06T12:57:52.880Z,39.40
2019-02-06T13:00:27.117Z,50.17
2019-02-06T13:02:59.674Z,41.63
2019-02-06T13:05:31.985Z,36.47
2019-02-06T13:08:00.681Z,30.70
2019-02-06T13:10:33.953Z,41.30
2019-02-06T13:12:59.602Z,35.83
2019-02-06T13:15:28.149Z,30.97
2019-02-06T13:17:56.700Z,37.97
2019-02-06T13:20:37.752Z,38.07
2019-02-06T13:23:06.503Z,32.90
2019-02-06T13:25:35.212Z,35.27
2019-02-06T13:28:03.776Z,30.93
2019-02-06T13:30:37.467Z,38.80
2019-02-06T13:33:08.446Z,32.50
2019-02-06T13:35:38.439Z,26.87
2019-02-06T13:38:07.000Z,30.17
2019-02-06T13:40:45.097Z,29.93
2019-02-06T13:43:06.142Z,31.83
2019-02-06T13:45:43.309Z,35.10
2019-02-06T13:48:11.865Z,35.53
2019-02-06T13:50:40.603Z,31.83
2019-02-06T13:53:09.292Z,31.90
2019-02-06T13:55:37.979Z,32.73
2019-02-06T13:58:07.216Z,30.33
2019-02-06T14:00:38.288Z,37.83
2019-02-06T14:03:07.509Z,31.97
2019-02-06T14:05:37.018Z,32.93
2019-02-06T14:08:08.123Z,31.47
2019-02-06T14:10:36.803Z,30.67
2019-02-06T14:13:05.650Z,30.60
2019-02-06T14:15:42.408Z,34.80
2019-02-06T14:18:11.604Z,29.67
2019-02-06T14:20:41.210Z,33.37
2019-02-06T14:23:13.334Z,33.20
2019-02-06T14:25:48.450Z,29.67
2019-02-06T14:28:20.020Z,41.60
2019-02-06T14:31:09.504Z,40.47
2019-02-06T14:33:47.040Z,30.20
2019-02-06T14:36:38.055Z,32.20
2019-02-06T14:39:26.220Z,31.23
2019-02-06T14:42:30.471Z,33.10
2019-02-06T14:45:21.117Z,31.07
2019-02-06T14:47:55.316Z,31.90
2019-02-06T14:50:26.933Z,34.77
2019-02-06T14:53:13.697Z,31.43
2019-02-06T14:55:45.284Z,34.23
2019-02-06T14:58:37.985Z,30.73
2019-02-06T15:01:31.880Z,36.50
2019-02-06T15:04:20.565Z,35.77
2019-02-06T15:07:11.442Z,32.63
2019-02-06T15:09:55.001Z,29.53
2019-02-06T15:12:32.740Z,33.60
2019-02-06T15:15:19.465Z,34.43
2019-02-06T15:17:59.592Z,35.40
2019-02-06T15:20:34.016Z,38.87
2019-02-06T15:23:32.496Z,30.27
2019-02-06T15:26:11.168Z,35.83
2019-02-06T15:29:14.889Z,36.47
2019-02-06T15:32:04.408Z,34.50
2019-02-06T15:34:56.029Z,34.70
2019-02-06T15:37:42.420Z,29.67
2019-02-06T15:40:22.907Z,34.10
2019-02-06T15:43:00.417Z,33.20
2019-02-06T15:45:58.121Z,34.30
2019-02-06T15:48:35.697Z,36.17
2019-02-06T15:51:26.824Z,35.63
2019-02-06T15:54:01.732Z,33.40
2019-02-06T15:57:06.672Z,40.40
2019-02-06T15:59:53.085Z,42.10
2019-02-06T16:02:35.968Z,37.43
2019-02-06T16:05:20.980Z,35.90
2019-02-06T16:08:01.218Z,34.30
2019-02-06T16:10:56.909Z,33.40
2019-02-06T16:13:34.620Z,35.50
2019-02-06T16:16:26.531Z,36.27
2019-02-06T16:19:03.660Z,33.97
2019-02-06T16:21:52.055Z,38.90
2019-02-06T16:24:16.687Z,31.47
2019-02-06T16:27:12.216Z,30.47
2019-02-06T16:30:05.011Z,38.60
2019-02-06T16:32:42.304Z,39.27
2019-02-06T16:35:21.691Z,39.03
2019-02-06T16:37:53.338Z,36.77
2019-02-06T16:40:52.104Z,45.20
2019-02-06T16:43:45.022Z,36.30
2019-02-06T16:46:31.423Z,41.80
2019-02-06T16:49:18.369Z,37.87
2019-02-06T16:51:55.792Z,40.27
2019-02-06T16:54:36.284Z,44.90
2019-02-06T16:57:14.328Z,35.43
2019-02-06T16:59:45.900Z,42.13
2019-02-06T17:02:20.340Z,35.67
2019-02-06T17:05:00.740Z,36.23
2019-02-06T17:07:35.124Z,36.33
2019-02-06T17:10:18.512Z,37.20
2019-02-06T17:12:55.745Z,38.20
2019-02-06T17:18:59.363Z,39.87
2019-02-06T17:21:36.824Z,37.43
2019-02-06T17:24:25.013Z,36.67
2019-02-06T17:27:11.895Z,40.27
2019-02-06T17:29:55.602Z,39.93
2019-02-06T17:32:35.953Z,40.00
2019-02-06T17:35:26.333Z,46.23
2019-02-06T17:38:15.784Z,42.97
2019-02-06T17:40:56.029Z,41.53
2019-02-06T17:43:30.373Z,41.67
2019-02-06T17:46:21.525Z,42.27
2019-02-06T17:49:11.413Z,43.53
2019-02-06T17:52:02.536Z,38.90
2019-02-06T17:54:59.876Z,37.03
2019-02-06T17:57:28.476Z,45.63
2019-02-06T17:59:57.051Z,42.30
2019-02-06T18:02:25.625Z,48.93
2019-02-06T18:04:54.183Z,43.80
2019-02-06T18:07:22.756Z,44.87
2019-02-06T18:09:51.310Z,42.47
2019-02-06T18:12:26.113Z,44.50
2019-02-06T18:14:50.074Z,44.33
2019-02-06T18:17:19.136Z,46.70
2019-02-06T18:19:47.666Z,40.80
2019-02-06T18:22:16.228Z,35.90
2019-02-06T18:24:45.029Z,37.70
2019-02-06T18:27:13.753Z,40.73
2019-02-06T18:29:43.218Z,39.83
2019-02-06T18:32:11.773Z,41.57
2019-02-06T18:34:40.901Z,42.20
2019-02-06T18:37:09.885Z,40.67
2019-02-06T18:39:38.597Z,45.77
2019-02-06T18:42:07.244Z,44.40
2019-02-06T18:44:35.927Z,39.63
2019-02-06T18:47:04.742Z,41.83
2019-02-06T18:49:33.391Z,47.83
2019-02-06T18:52:02.252Z,40.20
2019-02-06T18:54:31.127Z,40.33
2019-02-06T18:56:59.752Z,37.73
2019-02-06T18:59:28.473Z,42.33
2019-02-06T19:01:57.181Z,39.80
2019-02-06T19:04:25.951Z,42.40
2019-02-06T19:06:54.519Z,40.93
2019-02-06T19:09:23.167Z,37.37
2019-02-06T19:11:51.779Z,37.53
2019-02-06T19:14:20.794Z,41.63
2019-02-06T19:16:49.822Z,39.10
2019-02-06T19:19:25.091Z,44.80
2019-02-06T19:21:48.591Z,45.30
2019-02-06T19:24:17.845Z,44.50
2019-02-06T19:26:46.433Z,44.87
2019-02-06T19:29:15.057Z,45.37
2019-02-06T19:31:44.325Z,43.23
2019-02-06T19:34:12.921Z,45.00
2019-02-06T19:36:41.553Z,44.90
2019-02-06T19:39:10.153Z,39.53
2019-02-06T19:41:38.734Z,47.83
2019-02-06T19:44:16.800Z,46.13
2019-02-06T19:46:45.848Z,41.30
2019-02-06T19:49:14.425Z,38.07
2019-02-06T19:51:43.055Z,39.37
2019-02-06T19:54:11.998Z,41.70
2019-02-06T19:56:40.505Z,43.73
2019-02-06T19:59:09.142Z,41.00
2019-02-06T20:01:37.728Z,41.70
2019-02-06T20:04:06.817Z,40.27
2019-02-06T20:06:35.679Z,44.57
2019-02-06T20:09:06.526Z,45.57
2019-02-06T20:11:35.160Z,41.10
2019-02-06T20:14:04.225Z,39.50
2019-02-06T20:16:32.828Z,42.43
2019-02-06T20:19:01.384Z,40.07
2019-02-06T20:21:29.980Z,43.70
2019-02-06T20:23:59.446Z,42.47
2019-02-06T20:26:28.089Z,40.23
2019-02-06T20:28:57.065Z,44.97
2019-02-06T20:31:25.613Z,48.33
2019-02-06T20:33:54.154Z,42.77
2019-02-06T20:36:22.713Z,44.70
2019-02-06T20:38:51.991Z,40.60
2019-02-06T20:41:21.016Z,43.13
2019-02-06T20:43:49.568Z,42.87
2019-02-06T20:46:18.152Z,44.33
2019-02-06T20:48:46.714Z,41.90
2019-02-06T20:51:15.553Z,44.40
2019-02-06T20:53:44.133Z,38.47
2019-02-06T20:56:12.737Z,39.23
2019-02-06T20:58:41.320Z,42.03
2019-02-06T21:01:10.271Z,42.80
2019-02-06T21:03:38.863Z,45.43
2019-02-06T21:06:07.493Z,38.03
2019-02-06T21:08:36.054Z,34.47
2019-02-06T21:11:04.821Z,40.23
2019-02-06T21:13:34.143Z,38.43
2019-02-06T21:16:03.328Z,40.93
2019-02-06T21:18:31.901Z,42.60
2019-02-06T21:21:00.483Z,44.30
2019-02-06T21:23:29.050Z,44.70
2019-02-06T21:25:57.629Z,38.73
2019-02-06T21:28:26.277Z,36.73
2019-02-06T21:30:54.835Z,39.53
2019-02-06T21:33:23.704Z,39.70
2019-02-06T21:35:52.181Z,39.73
2019-02-06T21:38:20.664Z,46.87
2019-02-06T21:40:49.226Z,40.73
2019-02-06T21:43:17.749Z,45.63
2019-02-06T21:45:46.309Z,40.80
2019-02-06T21:48:14.879Z,41.93
2019-02-06T21:50:43.461Z,42.13
2019-02-06T21:53:12.037Z,48.60
2019-02-06T21:55:40.770Z,44.93
2019-02-06T21:58:09.388Z,45.33
2019-02-06T22:00:42.964Z,46.80
2019-02-06T22:03:11.533Z,46.17
2019-02-06T22:05:40.025Z,44.93
2019-02-06T22:08:08.962Z,46.37
2019-02-06T22:10:37.517Z,44.57
2019-02-06T22:13:06.156Z,41.93
2019-02-06T22:15:34.791Z,42.97
2019-02-06T22:18:03.416Z,46.43
2019-02-06T22:20:32.125Z,43.47
2019-02-06T22:23:00.692Z,47.23
2019-02-06T22:25:29.305Z,43.87
2019-02-06T22:27:57.873Z,48.27
2019-02-06T22:30:30.646Z,46.63
2019-02-06T22:32:59.332Z,40.00
2019-02-06T22:35:28.021Z,45.27
2019-02-06T22:37:56.769Z,43.33
2019-02-06T22:40:26.768Z,48.73
2019-02-06T22:42:55.391Z,43.70
2019-02-06T22:45:29.444Z,49.03
2019-02-06T22:47:58.012Z,46.77
2019-02-06T22:50:28.616Z,51.63
2019-02-06T22:52:57.151Z,51.07
2019-02-06T22:55:25.873Z,51.90
2019-02-06T22:57:54.420Z,51.93
2019-02-06T23:00:39.666Z,45.97
2019-02-06T23:03:08.451Z,53.20
2019-02-06T23:05:37.018Z,57.03
2019-02-06T23:08:05.703Z,50.23
2019-02-06T23:10:36.813Z,50.13
2019-02-06T23:13:04.625Z,54.30
2019-02-06T23:15:33.568Z,49.10
2019-02-06T23:18:02.090Z,55.17
2019-02-06T23:20:30.672Z,49.40
2019-02-06T23:22:59.381Z,47.83
2019-02-06T23:25:27.925Z,49.67
2019-02-06T23:27:56.508Z,45.03
2019-02-06T23:30:25.721Z,45.20
2019-02-06T23:32:54.260Z,46.80
2019-02-06T23:35:22.849Z,47.80
2019-02-06T23:37:51.392Z,49.07
2019-02-06T23:40:20.030Z,48.40
2019-02-06T23:42:48.664Z,47.67
2019-02-06T23:45:18.426Z,47.80
2019-02-06T23:47:47.005Z,51.43
2019-02-06T23:50:16.924Z,49.63
2019-02-06T23:52:45.565Z,50.07
2019-02-06T23:55:14.372Z,52.97
2019-02-06T23:57:43.864Z,52.97
